Itaiba, Brazil
Current Conditions -  °F | °C
As of 1:00 PM on Sunday 21 Dec 2014 (Local Time) from SBUF Reporting Station
Few Clouds Few Clouds  
Wind Chill: 97°   Ceiling: Unl
Heat Index: 99°   Visibility: 6mi
Dew Point: 64°   Wind: 8mph
Humidity: 34%   Direction: 170°S
Pressure: 29.94"   Gusts: NA
Location:  8.95°S, 37.42°W
Report Text: SBUF 211600Z 17007KT 9999 FEW021 36/18 Q1014
Loading
Personal Weather Stations






























Interactive Weather Map New forecast layout! Learn more

10-Day Weather Forecast

Advertisements
Track Severe Weather on mobile